Terminal Aerodrome Forecast
Issued by NWS Quad Cities IA IL

Home | Current Version | Previous Version | Text Only | Print | Product List | Glossary On
Versions: 1 2 3 4 5 6 7 8 9 10 11 12 13 14 15 16 17 18 19 20 21 22 23 24 25 26
266
FTUS43 KDVN 241943 AAB
TAFDBQ
TAF AMD
KDBQ 241943Z 2420/2518 36010KT P6SM VCSH SCT030 OVC070
     FM242100 35010KT 6SM -RA BR SCT017 OVC035
     FM250100 02012KT 4SM -RA BR OVC010
     FM250500 05015KT 3SM -RA BR OVC007
     FM250900 05018G25KT 3SM -RA BR OVC006=

USA.gov is the U.S. government's official web portal to all federal, state and local government web resources and services.